sensor_id;sensor_type;location;lat;lon;timestamp;temperature;humidity
18444;DHT22;9350;53.176;8.194;2023-06-04T00:00:14;13.90;99.90
18444;DHT22;9350;53.176;8.194;2023-06-04T00:02:41;13.80;99.90
18444;DHT22;9350;53.176;8.194;2023-06-04T00:05:08;13.80;99.90
18444;DHT22;9350;53.176;8.194;2023-06-04T00:07:36;13.70;99.90
18444;DHT22;9350;53.176;8.194;2023-06-04T00:10:04;13.70;99.90
18444;DHT22;9350;53.176;8.194;2023-06-04T00:12:31;13.60;99.90
18444;DHT22;9350;53.176;8.194;2023-06-04T00:14:57;13.50;99.90
18444;DHT22;9350;53.176;8.194;2023-06-04T00:17:24;13.40;99.90
18444;DHT22;9350;53.176;8.194;2023-06-04T00:19:51;13.50;99.90
18444;DHT22;9350;53.176;8.194;2023-06-04T00:22:18;13.40;99.90
18444;DHT22;9350;53.176;8.194;2023-06-04T00:24:46;13.40;99.90
18444;DHT22;9350;53.176;8.194;2023-06-04T00:27:13;13.40;99.90
18444;DHT22;9350;53.176;8.194;2023-06-04T00:29:39;13.30;99.90
18444;DHT22;9350;53.176;8.194;2023-06-04T00:32:07;13.30;99.90
18444;DHT22;9350;53.176;8.194;2023-06-04T00:34:34;13.30;99.90
18444;DHT22;9350;53.176;8.194;2023-06-04T00:37:00;13.30;99.90
18444;DHT22;9350;53.176;8.194;2023-06-04T00:39:27;13.30;99.90
18444;DHT22;9350;53.176;8.194;2023-06-04T00:41:56;13.30;99.90
18444;DHT22;9350;53.176;8.194;2023-06-04T00:44:22;13.20;99.90
18444;DHT22;9350;53.176;8.194;2023-06-04T00:46:50;13.20;99.90
18444;DHT22;9350;53.176;8.194;2023-06-04T00:49:19;13.10;99.90
18444;DHT22;9350;53.176;8.194;2023-06-04T00:51:46;13.10;99.90
18444;DHT22;9350;53.176;8.194;2023-06-04T00:54:13;13.00;99.90
18444;DHT22;9350;53.176;8.194;2023-06-04T00:56:43;13.00;99.90
18444;DHT22;9350;53.176;8.194;2023-06-04T00:59:11;13.00;99.90
18444;DHT22;9350;53.176;8.194;2023-06-04T01:01:43;13.00;99.90
18444;DHT22;9350;53.176;8.194;2023-06-04T01:04:16;12.90;99.90
18444;DHT22;9350;53.176;8.194;2023-06-04T01:06:47;13.00;99.90
18444;DHT22;9350;53.176;8.194;2023-06-04T01:09:15;12.90;99.90
18444;DHT22;9350;53.176;8.194;2023-06-04T01:11:42;12.90;99.90
18444;DHT22;9350;53.176;8.194;2023-06-04T01:14:11;12.80;99.90
18444;DHT22;9350;53.176;8.194;2023-06-04T01:16:40;12.90;99.90
18444;DHT22;9350;53.176;8.194;2023-06-04T01:19:16;12.80;99.90
18444;DHT22;9350;53.176;8.194;2023-06-04T01:21:52;12.80;99.90
18444;DHT22;9350;53.176;8.194;2023-06-04T01:24:21;12.80;99.90
18444;DHT22;9350;53.176;8.194;2023-06-04T01:26:52;12.70;99.90
18444;DHT22;9350;53.176;8.194;2023-06-04T01:29:22;12.80;99.90
18444;DHT22;9350;53.176;8.194;2023-06-04T01:31:50;12.70;99.90
18444;DHT22;9350;53.176;8.194;2023-06-04T01:34:18;12.70;99.90
18444;DHT22;9350;53.176;8.194;2023-06-04T01:36:45;12.70;99.90
18444;DHT22;9350;53.176;8.194;2023-06-04T01:39:12;12.60;99.90
18444;DHT22;9350;53.176;8.194;2023-06-04T01:41:39;12.70;99.90
18444;DHT22;9350;53.176;8.194;2023-06-04T01:44:05;12.70;99.90
18444;DHT22;9350;53.176;8.194;2023-06-04T01:46:33;12.60;99.90
18444;DHT22;9350;53.176;8.194;2023-06-04T01:49:00;12.60;99.90
18444;DHT22;9350;53.176;8.194;2023-06-04T01:51:27;12.50;99.90
18444;DHT22;9350;53.176;8.194;2023-06-04T01:53:53;12.50;99.90
18444;DHT22;9350;53.176;8.194;2023-06-04T01:56:20;12.40;99.90
18444;DHT22;9350;53.176;8.194;2023-06-04T01:58:47;12.40;99.90
18444;DHT22;9350;53.176;8.194;2023-06-04T02:01:14;12.40;99.90
18444;DHT22;9350;53.176;8.194;2023-06-04T02:03:44;12.40;99.90
18444;DHT22;9350;53.176;8.194;2023-06-04T02:06:11;12.50;99.90
18444;DHT22;9350;53.176;8.194;2023-06-04T02:08:37;12.40;99.90
18444;DHT22;9350;53.176;8.194;2023-06-04T02:11:05;12.40;99.90
18444;DHT22;9350;53.176;8.194;2023-06-04T02:13:32;12.40;99.90
18444;DHT22;9350;53.176;8.194;2023-06-04T02:15:59;12.40;99.90
18444;DHT22;9350;53.176;8.194;2023-06-04T02:18:25;12.20;99.90
18444;DHT22;9350;53.176;8.194;2023-06-04T02:20:54;12.20;99.90
18444;DHT22;9350;53.176;8.194;2023-06-04T02:23:21;12.20;99.90
18444;DHT22;9350;53.176;8.194;2023-06-04T02:25:48;12.20;99.90
18444;DHT22;9350;53.176;8.194;2023-06-04T02:28:15;12.20;99.90
18444;DHT22;9350;53.176;8.194;2023-06-04T02:30:42;12.20;99.90
18444;DHT22;9350;53.176;8.194;2023-06-04T02:33:09;12.20;99.90
18444;DHT22;9350;53.176;8.194;2023-06-04T02:35:36;12.10;99.90
18444;DHT22;9350;53.176;8.194;2023-06-04T02:38:04;12.20;99.90
18444;DHT22;9350;53.176;8.194;2023-06-04T02:40:31;12.10;99.90
18444;DHT22;9350;53.176;8.194;2023-06-04T02:42:57;12.10;99.90
18444;DHT22;9350;53.176;8.194;2023-06-04T02:45:24;12.10;99.90
18444;DHT22;9350;53.176;8.194;2023-06-04T02:47:51;12.20;99.90
18444;DHT22;9350;53.176;8.194;2023-06-04T02:50:18;12.10;99.90
18444;DHT22;9350;53.176;8.194;2023-06-04T02:52:45;12.10;99.90
18444;DHT22;9350;53.176;8.194;2023-06-04T02:55:13;12.10;99.90
18444;DHT22;9350;53.176;8.194;2023-06-04T02:57:40;12.00;99.90
18444;DHT22;9350;53.176;8.194;2023-06-04T03:00:09;12.00;99.90
18444;DHT22;9350;53.176;8.194;2023-06-04T03:02:41;12.00;99.90
18444;DHT22;9350;53.176;8.194;2023-06-04T03:05:08;12.00;99.90
18444;DHT22;9350;53.176;8.194;2023-06-04T03:07:36;12.00;99.90
18444;DHT22;9350;53.176;8.194;2023-06-04T03:10:03;11.90;99.90
18444;DHT22;9350;53.176;8.194;2023-06-04T03:12:31;11.90;99.90
18444;DHT22;9350;53.176;8.194;2023-06-04T03:14:58;11.90;99.90
18444;DHT22;9350;53.176;8.194;2023-06-04T03:17:25;11.90;99.90
18444;DHT22;9350;53.176;8.194;2023-06-04T03:19:52;11.90;99.90
18444;DHT22;9350;53.176;8.194;2023-06-04T03:22:21;11.90;99.90
18444;DHT22;9350;53.176;8.194;2023-06-04T03:24:49;11.80;99.90
18444;DHT22;9350;53.176;8.194;2023-06-04T03:27:15;11.90;99.90
18444;DHT22;9350;53.176;8.194;2023-06-04T03:29:43;11.80;99.90
18444;DHT22;9350;53.176;8.194;2023-06-04T03:32:11;11.80;99.90
18444;DHT22;9350;53.176;8.194;2023-06-04T03:34:38;11.80;99.90
18444;DHT22;9350;53.176;8.194;2023-06-04T03:37:05;11.80;99.90
18444;DHT22;9350;53.176;8.194;2023-06-04T03:39:31;11.80;99.90
18444;DHT22;9350;53.176;8.194;2023-06-04T03:41:58;11.80;99.90
18444;DHT22;9350;53.176;8.194;2023-06-04T03:44:25;11.80;99.90
18444;DHT22;9350;53.176;8.194;2023-06-04T03:46:53;11.80;99.90
18444;DHT22;9350;53.176;8.194;2023-06-04T03:49:19;11.80;99.90
18444;DHT22;9350;53.176;8.194;2023-06-04T03:51:47;11.80;99.90
18444;DHT22;9350;53.176;8.194;2023-06-04T03:54:14;11.80;99.90
18444;DHT22;9350;53.176;8.194;2023-06-04T03:56:43;11.80;99.90
18444;DHT22;9350;53.176;8.194;2023-06-04T03:59:10;11.70;99.90
18444;DHT22;9350;53.176;8.194;2023-06-04T04:01:37;11.80;99.90
18444;DHT22;9350;53.176;8.194;2023-06-04T04:04:05;11.80;99.90
18444;DHT22;9350;53.176;8.194;2023-06-04T04:06:32;11.90;99.90
18444;DHT22;9350;53.176;8.194;2023-06-04T04:08:59;11.90;99.90
18444;DHT22;9350;53.176;8.194;2023-06-04T04:11:25;11.90;99.90
18444;DHT22;9350;53.176;8.194;2023-06-04T04:13:52;11.90;99.90
18444;DHT22;9350;53.176;8.194;2023-06-04T04:16:19;12.00;99.90
18444;DHT22;9350;53.176;8.194;2023-06-04T04:18:46;12.00;99.90
18444;DHT22;9350;53.176;8.194;2023-06-04T04:21:14;12.00;99.90
18444;DHT22;9350;53.176;8.194;2023-06-04T04:23:40;12.10;99.90
18444;DHT22;9350;53.176;8.194;2023-06-04T04:26:07;12.20;99.90
18444;DHT22;9350;53.176;8.194;2023-06-04T04:28:35;12.20;99.90
18444;DHT22;9350;53.176;8.194;2023-06-04T04:31:02;12.20;99.90
18444;DHT22;9350;53.176;8.194;2023-06-04T04:33:29;12.20;99.90
18444;DHT22;9350;53.176;8.194;2023-06-04T04:36:02;12.30;99.90
18444;DHT22;9350;53.176;8.194;2023-06-04T04:38:30;12.30;99.90
18444;DHT22;9350;53.176;8.194;2023-06-04T04:40:59;12.40;99.90
18444;DHT22;9350;53.176;8.194;2023-06-04T04:43:31;12.40;99.90
18444;DHT22;9350;53.176;8.194;2023-06-04T04:45:58;12.50;99.90
18444;DHT22;9350;53.176;8.194;2023-06-04T04:48:25;12.70;99.90
18444;DHT22;9350;53.176;8.194;2023-06-04T04:50:51;12.80;99.90
18444;DHT22;9350;53.176;8.194;2023-06-04T04:53:18;12.90;99.90
18444;DHT22;9350;53.176;8.194;2023-06-04T04:55:46;12.90;99.90
18444;DHT22;9350;53.176;8.194;2023-06-04T04:58:13;12.90;99.90
18444;DHT22;9350;53.176;8.194;2023-06-04T05:00:41;13.00;99.90
18444;DHT22;9350;53.176;8.194;2023-06-04T05:03:08;13.10;99.90
18444;DHT22;9350;53.176;8.194;2023-06-04T05:05:35;13.20;99.90
18444;DHT22;9350;53.176;8.194;2023-06-04T05:08:01;13.30;99.90
18444;DHT22;9350;53.176;8.194;2023-06-04T05:10:28;13.40;99.90
18444;DHT22;9350;53.176;8.194;2023-06-04T05:12:58;13.40;99.90
18444;DHT22;9350;53.176;8.194;2023-06-04T05:15:25;13.30;99.90
18444;DHT22;9350;53.176;8.194;2023-06-04T05:17:53;13.40;99.90
18444;DHT22;9350;53.176;8.194;2023-06-04T05:20:21;13.50;99.90
18444;DHT22;9350;53.176;8.194;2023-06-04T05:22:48;13.60;99.90
18444;DHT22;9350;53.176;8.194;2023-06-04T05:25:16;13.60;99.90
18444;DHT22;9350;53.176;8.194;2023-06-04T05:27:43;13.70;99.90
18444;DHT22;9350;53.176;8.194;2023-06-04T05:30:12;13.70;99.90
18444;DHT22;9350;53.176;8.194;2023-06-04T05:32:39;13.70;99.90
18444;DHT22;9350;53.176;8.194;2023-06-04T05:35:08;13.90;99.90
18444;DHT22;9350;53.176;8.194;2023-06-04T05:37:35;13.80;99.90
18444;DHT22;9350;53.176;8.194;2023-06-04T05:40:04;13.90;99.90
18444;DHT22;9350;53.176;8.194;2023-06-04T05:42:32;14.00;99.90
18444;DHT22;9350;53.176;8.194;2023-06-04T05:44:59;14.00;99.90
18444;DHT22;9350;53.176;8.194;2023-06-04T05:47:27;14.00;99.90
18444;DHT22;9350;53.176;8.194;2023-06-04T05:49:55;14.10;99.90
18444;DHT22;9350;53.176;8.194;2023-06-04T05:52:22;14.10;99.90
18444;DHT22;9350;53.176;8.194;2023-06-04T05:54:48;14.10;99.90
18444;DHT22;9350;53.176;8.194;2023-06-04T05:57:15;14.20;99.90
18444;DHT22;9350;53.176;8.194;2023-06-04T05:59:42;14.20;99.90
18444;DHT22;9350;53.176;8.194;2023-06-04T06:02:09;14.30;99.90
18444;DHT22;9350;53.176;8.194;2023-06-04T06:04:37;14.30;99.90
18444;DHT22;9350;53.176;8.194;2023-06-04T06:07:04;14.20;99.90
18444;DHT22;9350;53.176;8.194;2023-06-04T06:09:31;14.20;99.90
18444;DHT22;9350;53.176;8.194;2023-06-04T06:11:58;14.20;99.90
18444;DHT22;9350;53.176;8.194;2023-06-04T06:14:25;14.20;99.90
18444;DHT22;9350;53.176;8.194;2023-06-04T06:16:51;14.20;99.90
18444;DHT22;9350;53.176;8.194;2023-06-04T06:19:19;14.30;99.90
18444;DHT22;9350;53.176;8.194;2023-06-04T06:21:47;14.30;99.90
18444;DHT22;9350;53.176;8.194;2023-06-04T06:24:14;14.40;99.90
18444;DHT22;9350;53.176;8.194;2023-06-04T06:26:40;14.50;99.90
18444;DHT22;9350;53.176;8.194;2023-06-04T06:29:08;14.60;99.90
18444;DHT22;9350;53.176;8.194;2023-06-04T06:31:35;14.50;99.90
18444;DHT22;9350;53.176;8.194;2023-06-04T06:34:01;14.60;99.90
18444;DHT22;9350;53.176;8.194;2023-06-04T06:36:29;14.60;99.90
18444;DHT22;9350;53.176;8.194;2023-06-04T06:38:57;14.60;99.90
18444;DHT22;9350;53.176;8.194;2023-06-04T06:41:24;14.60;99.90
18444;DHT22;9350;53.176;8.194;2023-06-04T06:43:51;14.60;99.90
18444;DHT22;9350;53.176;8.194;2023-06-04T06:46:18;14.70;99.90
18444;DHT22;9350;53.176;8.194;2023-06-04T06:48:45;14.70;99.90
18444;DHT22;9350;53.176;8.194;2023-06-04T06:51:12;14.70;99.90
18444;DHT22;9350;53.176;8.194;2023-06-04T06:53:39;14.60;99.90
18444;DHT22;9350;53.176;8.194;2023-06-04T06:56:07;14.80;99.90
18444;DHT22;9350;53.176;8.194;2023-06-04T06:58:34;14.80;99.90
18444;DHT22;9350;53.176;8.194;2023-06-04T07:01:01;14.90;99.90
18444;DHT22;9350;53.176;8.194;2023-06-04T07:03:28;14.90;99.90
18444;DHT22;9350;53.176;8.194;2023-06-04T07:05:54;15.00;99.90
18444;DHT22;9350;53.176;8.194;2023-06-04T07:08:21;15.10;99.90
18444;DHT22;9350;53.176;8.194;2023-06-04T07:10:48;15.10;99.90
18444;DHT22;9350;53.176;8.194;2023-06-04T07:13:16;15.10;99.90
18444;DHT22;9350;53.176;8.194;2023-06-04T07:15:43;15.10;99.90
18444;DHT22;9350;53.176;8.194;2023-06-04T07:18:10;15.10;99.90
18444;DHT22;9350;53.176;8.194;2023-06-04T07:20:37;15.10;99.90
18444;DHT22;9350;53.176;8.194;2023-06-04T07:23:04;15.10;99.90
18444;DHT22;9350;53.176;8.194;2023-06-04T07:25:32;15.10;99.90
18444;DHT22;9350;53.176;8.194;2023-06-04T07:27:59;15.10;99.90
18444;DHT22;9350;53.176;8.194;2023-06-04T07:30:30;15.10;99.90
18444;DHT22;9350;53.176;8.194;2023-06-04T07:32:57;15.20;99.90
18444;DHT22;9350;53.176;8.194;2023-06-04T07:35:24;15.40;99.90
18444;DHT22;9350;53.176;8.194;2023-06-04T07:37:51;15.30;99.90
18444;DHT22;9350;53.176;8.194;2023-06-04T07:40:18;15.40;99.90
18444;DHT22;9350;53.176;8.194;2023-06-04T07:42:45;15.40;99.90
18444;DHT22;9350;53.176;8.194;2023-06-04T07:45:12;15.50;99.90
18444;DHT22;9350;53.176;8.194;2023-06-04T07:47:40;15.50;99.90
18444;DHT22;9350;53.176;8.194;2023-06-04T07:50:08;15.70;99.90
18444;DHT22;9350;53.176;8.194;2023-06-04T07:52:35;15.70;99.90
18444;DHT22;9350;53.176;8.194;2023-06-04T07:55:01;15.70;99.90
18444;DHT22;9350;53.176;8.194;2023-06-04T07:57:30;15.80;99.90
18444;DHT22;9350;53.176;8.194;2023-06-04T07:59:57;15.80;99.90
18444;DHT22;9350;53.176;8.194;2023-06-04T08:02:25;15.80;99.90
18444;DHT22;9350;53.176;8.194;2023-06-04T08:04:53;15.80;99.90
18444;DHT22;9350;53.176;8.194;2023-06-04T08:07:19;16.00;99.90
18444;DHT22;9350;53.176;8.194;2023-06-04T08:09:46;16.00;99.90
18444;DHT22;9350;53.176;8.194;2023-06-04T08:12:13;15.90;99.90
18444;DHT22;9350;53.176;8.194;2023-06-04T08:14:41;16.00;99.90
18444;DHT22;9350;53.176;8.194;2023-06-04T08:17:08;16.10;99.90
18444;DHT22;9350;53.176;8.194;2023-06-04T08:19:35;16.10;99.90
18444;DHT22;9350;53.176;8.194;2023-06-04T08:22:03;16.10;99.90
18444;DHT22;9350;53.176;8.194;2023-06-04T08:24:30;16.00;99.90
18444;DHT22;9350;53.176;8.194;2023-06-04T08:26:57;16.10;99.90
18444;DHT22;9350;53.176;8.194;2023-06-04T08:29:23;16.20;99.90
18444;DHT22;9350;53.176;8.194;2023-06-04T08:31:51;16.20;99.90
18444;DHT22;9350;53.176;8.194;2023-06-04T08:34:17;16.20;99.90
18444;DHT22;9350;53.176;8.194;2023-06-04T08:36:44;16.30;99.90
18444;DHT22;9350;53.176;8.194;2023-06-04T08:39:13;16.40;99.90
18444;DHT22;9350;53.176;8.194;2023-06-04T08:41:43;16.40;99.90
18444;DHT22;9350;53.176;8.194;2023-06-04T08:44:11;16.50;99.90
18444;DHT22;9350;53.176;8.194;2023-06-04T08:46:38;16.60;99.90
18444;DHT22;9350;53.176;8.194;2023-06-04T08:49:07;16.60;99.90
18444;DHT22;9350;53.176;8.194;2023-06-04T08:51:37;16.60;99.90
18444;DHT22;9350;53.176;8.194;2023-06-04T08:54:06;16.50;99.90
18444;DHT22;9350;53.176;8.194;2023-06-04T08:56:34;16.60;99.90
18444;DHT22;9350;53.176;8.194;2023-06-04T08:59:03;16.70;99.90
18444;DHT22;9350;53.176;8.194;2023-06-04T09:01:31;16.70;99.90
18444;DHT22;9350;53.176;8.194;2023-06-04T09:04:01;16.80;99.90
18444;DHT22;9350;53.176;8.194;2023-06-04T09:06:29;16.80;99.90
18444;DHT22;9350;53.176;8.194;2023-06-04T09:08:57;16.80;99.90
18444;DHT22;9350;53.176;8.194;2023-06-04T09:11:27;16.90;99.90
18444;DHT22;9350;53.176;8.194;2023-06-04T09:14:04;17.00;99.90
18444;DHT22;9350;53.176;8.194;2023-06-04T09:16:36;16.90;99.90
18444;DHT22;9350;53.176;8.194;2023-06-04T09:19:08;17.00;99.90
18444;DHT22;9350;53.176;8.194;2023-06-04T09:21:46;17.00;99.90
18444;DHT22;9350;53.176;8.194;2023-06-04T09:24:13;17.10;99.90
18444;DHT22;9350;53.176;8.194;2023-06-04T09:26:39;17.00;99.90
18444;DHT22;9350;53.176;8.194;2023-06-04T09:29:07;17.10;99.90
18444;DHT22;9350;53.176;8.194;2023-06-04T09:31:35;17.20;99.90
18444;DHT22;9350;53.176;8.194;2023-06-04T09:34:02;17.10;99.90
18444;DHT22;9350;53.176;8.194;2023-06-04T09:36:31;17.20;99.90
18444;DHT22;9350;53.176;8.194;2023-06-04T09:38:58;17.10;99.90
18444;DHT22;9350;53.176;8.194;2023-06-04T09:41:25;17.20;99.90
18444;DHT22;9350;53.176;8.194;2023-06-04T09:43:59;17.30;99.90
18444;DHT22;9350;53.176;8.194;2023-06-04T09:46:30;17.30;99.90
18444;DHT22;9350;53.176;8.194;2023-06-04T09:49:01;17.40;99.90
18444;DHT22;9350;53.176;8.194;2023-06-04T09:51:28;17.40;99.90
18444;DHT22;9350;53.176;8.194;2023-06-04T09:53:55;17.40;99.90
18444;DHT22;9350;53.176;8.194;2023-06-04T09:56:22;17.40;99.90
18444;DHT22;9350;53.176;8.194;2023-06-04T09:58:49;17.50;99.90
18444;DHT22;9350;53.176;8.194;2023-06-04T10:01:20;17.50;99.90
18444;DHT22;9350;53.176;8.194;2023-06-04T10:03:50;17.60;99.90
18444;DHT22;9350;53.176;8.194;2023-06-04T10:06:19;17.70;99.90
18444;DHT22;9350;53.176;8.194;2023-06-04T10:08:46;17.70;99.90
18444;DHT22;9350;53.176;8.194;2023-06-04T10:11:17;17.70;99.90
18444;DHT22;9350;53.176;8.194;2023-06-04T10:13:48;17.80;99.90
18444;DHT22;9350;53.176;8.194;2023-06-04T10:16:19;17.90;99.90
18444;DHT22;9350;53.176;8.194;2023-06-04T10:18:48;17.80;99.90
18444;DHT22;9350;53.176;8.194;2023-06-04T10:21:18;17.90;99.90
18444;DHT22;9350;53.176;8.194;2023-06-04T10:23:45;17.90;99.90
18444;DHT22;9350;53.176;8.194;2023-06-04T10:26:14;18.00;99.90
18444;DHT22;9350;53.176;8.194;2023-06-04T10:28:41;18.00;99.90
18444;DHT22;9350;53.176;8.194;2023-06-04T10:31:09;18.00;99.90
18444;DHT22;9350;53.176;8.194;2023-06-04T10:33:36;18.10;99.90
18444;DHT22;9350;53.176;8.194;2023-06-04T10:36:17;18.20;99.90
18444;DHT22;9350;53.176;8.194;2023-06-04T10:38:46;18.20;99.90
18444;DHT22;9350;53.176;8.194;2023-06-04T10:41:16;18.10;99.90
18444;DHT22;9350;53.176;8.194;2023-06-04T10:43:44;18.10;99.90
18444;DHT22;9350;53.176;8.194;2023-06-04T10:46:12;18.20;99.90
18444;DHT22;9350;53.176;8.194;2023-06-04T10:48:46;18.10;99.90
18444;DHT22;9350;53.176;8.194;2023-06-04T10:51:17;18.10;99.90
18444;DHT22;9350;53.176;8.194;2023-06-04T10:53:55;18.20;99.90
18444;DHT22;9350;53.176;8.194;2023-06-04T10:56:25;18.20;99.90
18444;DHT22;9350;53.176;8.194;2023-06-04T10:58:52;18.20;99.90
18444;DHT22;9350;53.176;8.194;2023-06-04T11:01:24;18.30;99.90
18444;DHT22;9350;53.176;8.194;2023-06-04T11:03:50;18.20;99.90
18444;DHT22;9350;53.176;8.194;2023-06-04T11:06:19;18.20;99.90
18444;DHT22;9350;53.176;8.194;2023-06-04T11:08:46;18.20;99.90
18444;DHT22;9350;53.176;8.194;2023-06-04T11:11:15;18.30;99.90
18444;DHT22;9350;53.176;8.194;2023-06-04T11:13:42;18.30;99.90
18444;DHT22;9350;53.176;8.194;2023-06-04T11:16:15;18.30;99.90
18444;DHT22;9350;53.176;8.194;2023-06-04T11:18:43;18.30;99.90
18444;DHT22;9350;53.176;8.194;2023-06-04T11:21:11;18.40;99.90
18444;DHT22;9350;53.176;8.194;2023-06-04T11:23:42;18.50;99.90
18444;DHT22;9350;53.176;8.194;2023-06-04T11:26:09;18.40;99.90
18444;DHT22;9350;53.176;8.194;2023-06-04T11:28:35;18.50;99.90
18444;DHT22;9350;53.176;8.194;2023-06-04T11:31:03;18.50;99.90
18444;DHT22;9350;53.176;8.194;2023-06-04T11:33:41;18.50;99.90
18444;DHT22;9350;53.176;8.194;2023-06-04T11:36:07;18.50;99.90
18444;DHT22;9350;53.176;8.194;2023-06-04T11:38:34;18.40;99.90
18444;DHT22;9350;53.176;8.194;2023-06-04T11:41:03;18.40;99.90
18444;DHT22;9350;53.176;8.194;2023-06-04T11:43:32;18.50;99.90
18444;DHT22;9350;53.176;8.194;2023-06-04T11:46:05;18.50;99.90
18444;DHT22;9350;53.176;8.194;2023-06-04T11:48:32;18.50;99.90
18444;DHT22;9350;53.176;8.194;2023-06-04T11:51:05;18.50;99.90
18444;DHT22;9350;53.176;8.194;2023-06-04T11:53:32;18.50;99.90
18444;DHT22;9350;53.176;8.194;2023-06-04T11:55:59;18.50;99.90
18444;DHT22;9350;53.176;8.194;2023-06-04T11:58:28;18.60;99.90
18444;DHT22;9350;53.176;8.194;2023-06-04T12:00:55;18.60;99.90
18444;DHT22;9350;53.176;8.194;2023-06-04T12:03:33;18.70;99.90
18444;DHT22;9350;53.176;8.194;2023-06-04T12:06:12;18.70;99.90
18444;DHT22;9350;53.176;8.194;2023-06-04T12:08:48;18.60;99.90
18444;DHT22;9350;53.176;8.194;2023-06-04T12:11:26;18.70;99.90
18444;DHT22;9350;53.176;8.194;2023-06-04T12:13:55;18.80;99.90
18444;DHT22;9350;53.176;8.194;2023-06-04T12:16:22;18.70;99.90
18444;DHT22;9350;53.176;8.194;2023-06-04T12:18:49;18.70;99.90
18444;DHT22;9350;53.176;8.194;2023-06-04T12:21:18;18.60;99.90
18444;DHT22;9350;53.176;8.194;2023-06-04T12:23:45;18.60;99.90
18444;DHT22;9350;53.176;8.194;2023-06-04T12:26:20;18.60;99.90
18444;DHT22;9350;53.176;8.194;2023-06-04T12:29:00;18.60;99.90
18444;DHT22;9350;53.176;8.194;2023-06-04T12:31:27;18.70;99.90
18444;DHT22;9350;53.176;8.194;2023-06-04T12:33:58;18.70;99.90
18444;DHT22;9350;53.176;8.194;2023-06-04T12:36:25;18.80;99.90
18444;DHT22;9350;53.176;8.194;2023-06-04T12:38:52;18.80;99.90
18444;DHT22;9350;53.176;8.194;2023-06-04T12:41:19;18.80;99.90
18444;DHT22;9350;53.176;8.194;2023-06-04T12:43:45;18.70;99.90
18444;DHT22;9350;53.176;8.194;2023-06-04T12:46:13;18.60;99.90
18444;DHT22;9350;53.176;8.194;2023-06-04T12:48:40;18.70;99.90
18444;DHT22;9350;53.176;8.194;2023-06-04T12:51:08;18.70;99.90
18444;DHT22;9350;53.176;8.194;2023-06-04T12:53:38;18.80;99.90
18444;DHT22;9350;53.176;8.194;2023-06-04T12:56:05;18.80;99.90
18444;DHT22;9350;53.176;8.194;2023-06-04T12:58:32;18.90;99.90
18444;DHT22;9350;53.176;8.194;2023-06-04T13:00:58;18.80;99.90
18444;DHT22;9350;53.176;8.194;2023-06-04T13:03:27;18.90;99.90
18444;DHT22;9350;53.176;8.194;2023-06-04T13:05:53;18.90;99.90
18444;DHT22;9350;53.176;8.194;2023-06-04T13:08:20;18.90;99.90
18444;DHT22;9350;53.176;8.194;2023-06-04T13:10:48;19.00;99.90
18444;DHT22;9350;53.176;8.194;2023-06-04T13:13:15;19.00;99.90
18444;DHT22;9350;53.176;8.194;2023-06-04T13:15:42;19.00;99.90
18444;DHT22;9350;53.176;8.194;2023-06-04T13:18:09;18.90;99.90
18444;DHT22;9350;53.176;8.194;2023-06-04T13:20:37;19.00;99.90
18444;DHT22;9350;53.176;8.194;2023-06-04T13:23:04;19.00;99.90
18444;DHT22;9350;53.176;8.194;2023-06-04T13:25:30;19.00;99.90
18444;DHT22;9350;53.176;8.194;2023-06-04T13:27:58;19.10;99.90
18444;DHT22;9350;53.176;8.194;2023-06-04T13:30:25;19.20;99.90
18444;DHT22;9350;53.176;8.194;2023-06-04T13:32:52;19.20;99.90
18444;DHT22;9350;53.176;8.194;2023-06-04T13:35:19;19.10;99.90
18444;DHT22;9350;53.176;8.194;2023-06-04T13:37:47;19.10;99.90
18444;DHT22;9350;53.176;8.194;2023-06-04T13:40:15;19.10;99.90
18444;DHT22;9350;53.176;8.194;2023-06-04T13:42:41;19.10;99.90
18444;DHT22;9350;53.176;8.194;2023-06-04T13:45:09;19.20;99.90
18444;DHT22;9350;53.176;8.194;2023-06-04T13:47:36;19.10;99.90
18444;DHT22;9350;53.176;8.194;2023-06-04T13:50:03;19.10;99.90
18444;DHT22;9350;53.176;8.194;2023-06-04T13:52:30;19.20;99.90
18444;DHT22;9350;53.176;8.194;2023-06-04T13:54:58;19.20;99.90
18444;DHT22;9350;53.176;8.194;2023-06-04T13:57:25;19.20;99.90
18444;DHT22;9350;53.176;8.194;2023-06-04T13:59:53;19.10;99.90
18444;DHT22;9350;53.176;8.194;2023-06-04T14:02:19;19.20;99.90
18444;DHT22;9350;53.176;8.194;2023-06-04T14:04:46;19.20;99.90
18444;DHT22;9350;53.176;8.194;2023-06-04T14:07:13;19.30;99.90
18444;DHT22;9350;53.176;8.194;2023-06-04T14:09:40;19.20;99.90
18444;DHT22;9350;53.176;8.194;2023-06-04T14:12:08;19.30;99.90
18444;DHT22;9350;53.176;8.194;2023-06-04T14:14:35;19.30;99.90
18444;DHT22;9350;53.176;8.194;2023-06-04T14:17:03;19.30;99.90
18444;DHT22;9350;53.176;8.194;2023-06-04T14:19:30;19.20;99.90
18444;DHT22;9350;53.176;8.194;2023-06-04T14:21:56;19.10;99.90
18444;DHT22;9350;53.176;8.194;2023-06-04T14:24:23;19.10;99.90
18444;DHT22;9350;53.176;8.194;2023-06-04T14:26:50;19.10;99.90
18444;DHT22;9350;53.176;8.194;2023-06-04T14:29:18;18.80;99.90
18444;DHT22;9350;53.176;8.194;2023-06-04T14:31:45;18.80;99.90
18444;DHT22;9350;53.176;8.194;2023-06-04T14:34:12;18.80;99.90
18444;DHT22;9350;53.176;8.194;2023-06-04T14:36:38;18.90;99.90
18444;DHT22;9350;53.176;8.194;2023-06-04T14:39:05;19.00;99.90
18444;DHT22;9350;53.176;8.194;2023-06-04T14:41:32;19.10;99.90
18444;DHT22;9350;53.176;8.194;2023-06-04T14:43:59;19.00;99.90
18444;DHT22;9350;53.176;8.194;2023-06-04T14:46:27;19.10;99.90
18444;DHT22;9350;53.176;8.194;2023-06-04T14:48:53;19.10;99.90
18444;DHT22;9350;53.176;8.194;2023-06-04T14:51:21;19.20;99.90
18444;DHT22;9350;53.176;8.194;2023-06-04T14:53:48;19.10;99.90
18444;DHT22;9350;53.176;8.194;2023-06-04T14:56:16;19.20;99.90
18444;DHT22;9350;53.176;8.194;2023-06-04T14:58:43;19.30;99.90
18444;DHT22;9350;53.176;8.194;2023-06-04T15:01:10;19.30;99.90
18444;DHT22;9350;53.176;8.194;2023-06-04T15:03:40;19.30;99.90
18444;DHT22;9350;53.176;8.194;2023-06-04T15:06:07;19.40;99.90
18444;DHT22;9350;53.176;8.194;2023-06-04T15:08:33;19.30;99.90
18444;DHT22;9350;53.176;8.194;2023-06-04T15:11:00;19.30;99.90
18444;DHT22;9350;53.176;8.194;2023-06-04T15:13:27;19.20;99.90
18444;DHT22;9350;53.176;8.194;2023-06-04T15:15:54;19.10;99.90
18444;DHT22;9350;53.176;8.194;2023-06-04T15:18:20;19.20;99.90
18444;DHT22;9350;53.176;8.194;2023-06-04T15:20:49;19.20;99.90
18444;DHT22;9350;53.176;8.194;2023-06-04T15:23:15;19.20;99.90
18444;DHT22;9350;53.176;8.194;2023-06-04T15:25:43;19.10;99.90
18444;DHT22;9350;53.176;8.194;2023-06-04T15:28:10;19.10;99.90
18444;DHT22;9350;53.176;8.194;2023-06-04T15:30:37;19.00;99.90
18444;DHT22;9350;53.176;8.194;2023-06-04T15:33:03;19.00;99.90
18444;DHT22;9350;53.176;8.194;2023-06-04T15:35:30;19.00;99.90
18444;DHT22;9350;53.176;8.194;2023-06-04T15:37:58;19.00;99.90
18444;DHT22;9350;53.176;8.194;2023-06-04T15:40:25;19.00;99.90
18444;DHT22;9350;53.176;8.194;2023-06-04T15:42:52;19.00;99.90
18444;DHT22;9350;53.176;8.194;2023-06-04T15:45:19;19.00;99.90
18444;DHT22;9350;53.176;8.194;2023-06-04T15:47:49;18.90;99.90